Floyd, New Mexico
Current Conditions -  °F | °C
As of 8:56 AM on Sunday 25 Jan 2015 (Local Time) from K4MR Reporting Station
Clear Clear  
Wind Chill: 31°   Ceiling: Unl
Heat Index: 37°   Visibility: 10mi
Dew Point: 27°   Wind: 8mph
Humidity: 66%   Direction: 260°W
Pressure: 30.28"   Gusts: NA
Location:  34.21°N, 103.58°W
Report Text: K4MR 251556Z AUTO 26007KT 10SM CLR 03/M03 A3028 RMK AO2 SLP254 T00301028
Loading
Personal Weather Stations






























Interactive Weather Map New forecast layout! Learn more

10-Day Weather Forecast

Advertisements
Track Severe Weather on mobile